< < Back
Terminal Aerodrome Forecast


Current Version              Previous Versions:   1  2  3  4  5  6  7  8  9  

Terminal Aerodrome Forecast

244
FTUS42 KILM 031500 AAA
TAFFLO
TAF AMD
KFLO 031500Z 0315/0412 22009KT P6SM SCT025 SCT040 BKN100
     FM032000 25010KT P6SM VCTS SCT030CB BKN120
     FM040100 23003KT P6SM FEW050 BKN120
     FM040700 26004KT 4SM BR SCT120=



Latest METAR

604
SAUS70 KWBC 040800 RRE
MTRFLO
METAR KFLO 040753Z AUTO 23005KT 10SM BKN065 21/19 A2969 RMK AO2 SLP052
T02060189


USA.gov is the U.S. government's official web portal to all federal, state and local government web resources and services.